KTOR/TOR METAR and TAF weather

Enter ICAO airport designator
Station Type Date Time Source
KTOR METAR 2020/11/27 13:53 UTC NOAA

KTOR 271353Z AUTO 08006KT 10SM CLR M13/M14 A3023 RMK AO2 SLP287 I1000 T11281144 $


Station Type Date Time Source
KTOR Decoded METAR 2020/11/27 13:53 UTC NOAA

TORRINGTON MUNICIPAL AIRPORT, WY, United States (KTOR) 42-03N 104-09W 1277M
Nov 27, 2020 - 08:53 AM EST / 2020.11.27 1353 UTC
Wind: from the E (080 degrees) at 7 MPH (6 KT):0
Visibility: 10 mile(s):0
Sky conditions: clear
Temperature: 9.0 F (-12.8 C)
Windchill: -2 F (-19 C):1
Dew Point: 6.1 F (-14.4 C)
Relative Humidity: 87%
Pressure (altimeter): 30.23 in. Hg (1023 hPa)
ob: KTOR 271353Z AUTO 08006KT 10SM CLR M13/M14 A3023 RMK AO2 SLP287 I1000 T11281144
cycle: 14

Station Type Date Time Source
KTOR TAF UTC NOAA

Error!

Example: see airport list